createdAt,value
2017-11-05T00:01:42.213Z,7.20
2017-11-05T00:04:10.474Z,7.40
2017-11-05T00:06:37.968Z,7.33
2017-11-05T00:09:06.212Z,9.20
2017-11-05T00:11:33.718Z,7.60
2017-11-05T00:14:01.965Z,7.23
2017-11-05T00:16:29.437Z,6.57
2017-11-05T00:18:57.711Z,7.50
2017-11-05T00:21:25.160Z,8.50
2017-11-05T00:23:52.771Z,7.30
2017-11-05T00:26:20.203Z,7.50
2017-11-05T00:28:47.793Z,8.30
2017-11-05T00:31:15.254Z,7.93
2017-11-05T00:33:43.507Z,8.23
2017-11-05T00:36:11.109Z,8.03
2017-11-05T00:38:38.646Z,7.70
2017-11-05T00:41:06.123Z,9.80
2017-11-05T00:43:34.409Z,8.10
2017-11-05T00:46:01.864Z,10.20
2017-11-05T00:48:30.136Z,9.60
2017-11-05T00:50:57.602Z,9.30
2017-11-05T00:53:25.100Z,9.20
2017-11-05T00:55:52.577Z,8.70
2017-11-05T00:58:20.024Z,9.20
2017-11-05T01:00:47.570Z,10.00
2017-11-05T01:03:15.043Z,9.97
2017-11-05T01:05:42.571Z,9.77
2017-11-05T01:08:10.802Z,10.10
2017-11-05T01:10:38.319Z,10.60
2017-11-05T01:13:06.596Z,10.23
2017-11-05T01:15:34.899Z,10.10
2017-11-05T01:18:02.385Z,12.20
2017-11-05T01:20:29.891Z,11.30
2017-11-05T01:22:57.369Z,12.17
2017-11-05T01:25:25.579Z,11.43
2017-11-05T01:27:53.083Z,11.57
2017-11-05T01:30:20.596Z,10.97
2017-11-05T01:32:48.840Z,11.50
2017-11-05T01:35:16.316Z,12.83
2017-11-05T01:37:43.837Z,12.20
2017-11-05T01:40:11.291Z,11.83
2017-11-05T01:42:38.748Z,11.93
2017-11-05T01:45:06.254Z,12.40
2017-11-05T01:47:33.744Z,12.80
2017-11-05T01:50:01.971Z,13.77
2017-11-05T01:52:29.475Z,13.43
2017-11-05T01:54:57.709Z,13.40
2017-11-05T01:57:25.180Z,12.57
2017-11-05T01:59:52.647Z,13.97
2017-11-05T02:02:20.168Z,15.00
2017-11-05T02:04:48.364Z,14.10
2017-11-05T02:07:15.825Z,13.50
2017-11-05T02:09:43.328Z,13.83
2017-11-05T02:12:10.810Z,13.77
2017-11-05T02:14:38.289Z,15.03
2017-11-05T02:17:05.776Z,15.70
2017-11-05T02:19:34.008Z,14.60
2017-11-05T02:22:01.477Z,16.77
2017-11-05T02:24:28.973Z,15.60
2017-11-05T02:26:56.457Z,15.70
2017-11-05T02:29:23.972Z,14.33
2017-11-05T02:31:52.201Z,15.57
2017-11-05T02:34:19.713Z,14.43
2017-11-05T02:36:47.207Z,15.60
2017-11-05T02:39:14.671Z,16.57
2017-11-05T02:41:42.140Z,15.40
2017-11-05T02:44:09.654Z,13.00
2017-11-05T02:46:37.091Z,14.03
2017-11-05T02:49:04.546Z,14.87
2017-11-05T02:51:32.061Z,16.10
2017-11-05T02:54:00.294Z,14.67
2017-11-05T02:56:27.771Z,16.03
2017-11-05T02:58:55.271Z,13.97
2017-11-05T03:01:22.759Z,15.30
2017-11-05T03:03:50.265Z,13.10
2017-11-05T03:06:17.714Z,13.13
2017-11-05T03:08:45.336Z,11.67
2017-11-05T03:11:12.827Z,12.20
2017-11-05T03:13:40.393Z,11.60
2017-11-05T03:16:08.611Z,9.93
2017-11-05T03:18:36.120Z,10.00
2017-11-05T03:21:03.617Z,9.03
2017-11-05T03:23:31.087Z,8.90
2017-11-05T03:25:58.531Z,8.80
2017-11-05T03:28:26.069Z,8.80
2017-11-05T03:30:53.545Z,8.30
2017-11-05T03:33:21.000Z,6.77
2017-11-05T03:35:48.482Z,7.00
2017-11-05T03:38:15.965Z,7.00
2017-11-05T03:40:44.960Z,6.00
2017-11-05T03:43:12.431Z,7.20
2017-11-05T03:45:39.899Z,7.43
2017-11-05T03:48:07.580Z,7.00
2017-11-05T03:50:35.070Z,8.33
2017-11-05T03:53:03.301Z,8.20
2017-11-05T03:55:30.783Z,7.30
2017-11-05T03:57:59.048Z,7.33
2017-11-05T04:00:26.504Z,6.30
2017-11-05T04:02:53.984Z,7.00
2017-11-05T04:05:22.215Z,7.17
2017-11-05T04:07:49.713Z,7.80
2017-11-05T04:10:17.197Z,7.50
2017-11-05T04:12:44.692Z,6.83
2017-11-05T04:15:12.166Z,7.33
2017-11-05T04:17:39.662Z,8.03
2017-11-05T04:20:07.122Z,7.50
2017-11-05T04:22:34.556Z,6.93
2017-11-05T04:25:02.054Z,7.50
2017-11-05T04:27:29.507Z,7.27
2017-11-05T04:29:57.097Z,6.30
2017-11-05T04:32:25.338Z,5.63
2017-11-05T04:34:52.822Z,6.13
2017-11-05T04:37:20.326Z,7.37
2017-11-05T04:39:47.785Z,7.13
2017-11-05T04:42:15.269Z,7.30
2017-11-05T04:44:42.790Z,7.43
2017-11-05T04:47:10.256Z,6.80
2017-11-05T04:49:38.482Z,6.60
2017-11-05T04:52:05.979Z,7.37
2017-11-05T04:54:33.462Z,8.10
2017-11-05T04:57:00.966Z,8.20
2017-11-05T04:59:28.436Z,7.30
2017-11-05T05:01:55.931Z,7.60
2017-11-05T05:04:24.150Z,8.60
2017-11-05T05:06:51.605Z,7.50
2017-11-05T05:09:19.120Z,8.53
2017-11-05T05:11:46.618Z,8.57
2017-11-05T05:14:14.873Z,8.03
2017-11-05T05:16:42.357Z,8.50
2017-11-05T05:19:10.638Z,8.53
2017-11-05T05:21:38.845Z,7.27
2017-11-05T05:24:06.321Z,8.40
2017-11-05T05:26:33.821Z,9.07
2017-11-05T05:29:01.285Z,9.10
2017-11-05T05:31:28.748Z,9.13
2017-11-05T05:33:56.256Z,10.13
2017-11-05T05:36:23.754Z,9.17
2017-11-05T05:38:51.202Z,8.70
2017-11-05T05:41:18.686Z,9.40
2017-11-05T05:43:46.189Z,8.93
2017-11-05T05:46:13.674Z,9.53
2017-11-05T05:48:41.332Z,10.47
2017-11-05T05:51:09.587Z,8.67
2017-11-05T05:53:37.860Z,9.30
2017-11-05T05:56:05.361Z,9.77
2017-11-05T05:58:32.808Z,8.97
2017-11-05T06:01:00.227Z,10.50
2017-11-05T06:03:27.696Z,9.47
2017-11-05T06:05:55.184Z,8.87
2017-11-05T06:08:23.453Z,10.50
2017-11-05T06:10:50.938Z,10.20
2017-11-05T06:13:18.408Z,9.87
2017-11-05T06:15:45.902Z,11.23
2017-11-05T06:18:13.438Z,9.23
2017-11-05T06:20:40.954Z,10.27
2017-11-05T06:23:08.403Z,10.20
2017-11-05T06:25:35.886Z,9.97
2017-11-05T06:28:03.495Z,11.37
2017-11-05T06:30:31.001Z,11.40
2017-11-05T06:32:58.480Z,13.60
2017-11-05T06:35:26.008Z,11.40
2017-11-05T06:37:53.544Z,11.80
2017-11-05T06:40:21.016Z,10.43
2017-11-05T06:42:49.252Z,10.03
2017-11-05T06:45:16.744Z,11.60
2017-11-05T06:47:44.209Z,10.43
2017-11-05T06:50:11.707Z,10.53
2017-11-05T06:52:39.217Z,10.60
2017-11-05T06:55:07.442Z,9.20
2017-11-05T06:57:39.218Z,6.70
2017-11-05T07:00:06.657Z,6.20
2017-11-05T07:02:34.189Z,4.93
2017-11-05T07:05:01.683Z,6.13
2017-11-05T07:07:29.937Z,5.53
2017-11-05T07:09:58.220Z,5.37
2017-11-05T07:12:25.665Z,4.87
2017-11-05T07:14:53.109Z,5.30
2017-11-05T07:17:20.613Z,5.17
2017-11-05T07:19:48.873Z,7.70
2017-11-05T07:22:16.334Z,7.37
2017-11-05T07:24:43.849Z,9.00
2017-11-05T07:27:11.294Z,8.13
2017-11-05T07:29:38.955Z,8.30
2017-11-05T07:32:07.215Z,7.93
2017-11-05T07:34:34.677Z,9.53
2017-11-05T07:37:02.174Z,9.33
2017-11-05T07:39:29.638Z,8.27
2017-11-05T07:41:57.113Z,7.10
2017-11-05T07:44:24.672Z,7.60
2017-11-05T07:46:52.081Z,7.67
2017-11-05T07:49:19.574Z,7.10
2017-11-05T07:51:47.843Z,6.00
2017-11-05T07:54:15.322Z,5.90
2017-11-05T07:56:42.854Z,7.40
2017-11-05T07:59:10.318Z,5.80
2017-11-05T08:01:37.808Z,6.33
2017-11-05T08:04:05.294Z,5.27
2017-11-05T08:06:33.493Z,6.60
2017-11-05T08:09:00.972Z,4.47
2017-11-05T08:11:28.493Z,5.13
2017-11-05T08:13:56.719Z,4.00
2017-11-05T08:16:24.197Z,4.20
2017-11-05T08:18:51.763Z,3.47
2017-11-05T08:21:19.235Z,4.63
2017-11-05T08:23:47.519Z,3.80
2017-11-05T08:26:14.965Z,4.20
2017-11-05T08:28:42.459Z,3.73
2017-11-05T08:31:10.846Z,3.80
2017-11-05T08:33:38.407Z,3.53
2017-11-05T08:36:05.907Z,3.90
2017-11-05T08:38:33.319Z,3.97
2017-11-05T08:41:01.560Z,3.87
2017-11-05T08:43:29.060Z,4.37
2017-11-05T08:45:56.492Z,3.27
2017-11-05T08:48:24.011Z,3.80
2017-11-05T08:50:52.286Z,3.20
2017-11-05T08:53:19.751Z,4.03
2017-11-05T08:55:47.228Z,3.60
2017-11-05T08:58:14.755Z,4.37
2017-11-05T09:00:43.019Z,3.87
2017-11-05T09:03:10.514Z,3.33
2017-11-05T09:05:37.976Z,4.50
2017-11-05T09:08:05.468Z,6.63
2017-11-05T09:10:32.912Z,5.97
2017-11-05T09:13:00.407Z,5.20
2017-11-05T09:15:27.901Z,5.60
2017-11-05T09:17:56.160Z,5.40
2017-11-05T09:20:23.690Z,5.60
2017-11-05T09:22:51.140Z,4.93
2017-11-05T09:25:18.660Z,4.80
2017-11-05T09:27:46.164Z,4.03
2017-11-05T09:30:13.694Z,4.53
2017-11-05T09:32:41.143Z,4.30
2017-11-05T09:35:08.717Z,4.70
2017-11-05T09:37:36.199Z,5.00
2017-11-05T09:40:04.459Z,4.33
2017-11-05T09:42:31.937Z,4.27
2017-11-05T09:44:59.432Z,5.10
2017-11-05T09:47:26.956Z,4.73
2017-11-05T09:49:55.239Z,4.60
2017-11-05T09:52:22.713Z,4.00
2017-11-05T09:54:50.195Z,4.20
2017-11-05T09:57:17.663Z,4.00
2017-11-05T09:59:45.434Z,3.80
2017-11-05T10:02:12.940Z,3.60
2017-11-05T10:04:40.398Z,3.53
2017-11-05T10:07:07.875Z,3.87
2017-11-05T10:09:35.357Z,3.03
2017-11-05T10:12:03.615Z,2.80
2017-11-05T10:14:31.151Z,3.27
2017-11-05T10:16:58.589Z,3.00
2017-11-05T10:19:26.130Z,4.07
2017-11-05T10:21:54.362Z,2.97
2017-11-05T10:24:21.863Z,2.80
2017-11-05T10:26:49.371Z,2.30
2017-11-05T10:29:16.847Z,2.57
2017-11-05T10:31:44.304Z,2.90
2017-11-05T10:34:11.878Z,3.00
2017-11-05T10:36:39.406Z,2.40
2017-11-05T10:39:06.977Z,1.70
2017-11-05T10:41:34.480Z,2.30
2017-11-05T10:44:02.066Z,2.77
2017-11-05T10:46:29.542Z,2.63
2017-11-05T10:48:57.059Z,2.63
2017-11-05T10:51:25.266Z,2.00
2017-11-05T10:53:52.783Z,2.60
2017-11-05T10:56:21.019Z,2.43
2017-11-05T10:58:48.489Z,2.50
2017-11-05T11:01:16.711Z,2.37
2017-11-05T11:03:44.256Z,3.67
2017-11-05T11:06:11.762Z,3.83
2017-11-05T11:08:39.234Z,3.13
2017-11-05T11:11:06.695Z,3.60
2017-11-05T11:13:34.182Z,3.13
2017-11-05T11:16:02.486Z,2.73
2017-11-05T11:18:29.973Z,2.90
2017-11-05T11:20:57.504Z,2.40
2017-11-05T11:23:25.013Z,1.93
2017-11-05T11:25:52.506Z,2.37
2017-11-05T11:28:19.970Z,2.13
2017-11-05T11:30:48.230Z,2.23
2017-11-05T11:33:15.706Z,2.20
2017-11-05T11:35:43.217Z,5.23
2017-11-05T11:38:10.717Z,5.50
2017-11-05T11:40:38.182Z,3.30
2017-11-05T11:43:05.717Z,2.63
2017-11-05T11:45:33.940Z,2.97
2017-11-05T11:48:01.431Z,3.10
2017-11-05T11:50:28.969Z,3.43
2017-11-05T11:52:57.243Z,3.80
2017-11-05T11:55:24.687Z,4.33
2017-11-05T11:57:52.198Z,4.43
2017-11-05T12:00:19.706Z,4.37
2017-11-05T12:02:47.161Z,3.93
2017-11-05T12:05:14.704Z,3.53
2017-11-05T12:07:42.146Z,3.97
2017-11-05T12:10:09.691Z,3.27
2017-11-05T12:12:37.129Z,4.53
2017-11-05T12:15:05.244Z,4.17
2017-11-05T12:17:32.696Z,3.63
2017-11-05T12:20:00.935Z,3.37
2017-11-05T12:22:28.424Z,6.40
2017-11-05T12:24:55.903Z,3.90
2017-11-05T12:27:24.144Z,5.73
2017-11-05T12:29:51.720Z,4.90
2017-11-05T12:32:19.359Z,4.90
2017-11-05T12:34:46.736Z,5.30
2017-11-05T12:37:14.210Z,5.20
2017-11-05T12:39:41.714Z,5.37
2017-11-05T12:42:09.934Z,4.90
2017-11-05T12:44:37.477Z,4.60
2017-11-05T12:47:05.657Z,6.57
2017-11-05T12:49:33.148Z,4.90
2017-11-05T12:52:00.593Z,4.67
2017-11-05T12:54:28.053Z,4.10
2017-11-05T12:56:55.569Z,4.83
2017-11-05T12:59:23.027Z,5.37
2017-11-05T13:01:50.469Z,4.80
2017-11-05T13:04:17.991Z,4.60
2017-11-05T13:06:45.451Z,5.20
2017-11-05T13:09:12.988Z,4.13
2017-11-05T13:11:40.443Z,4.90
2017-11-05T13:14:08.698Z,5.27
2017-11-05T13:16:36.247Z,4.57
2017-11-05T13:19:03.730Z,4.77
2017-11-05T13:21:31.411Z,5.03
2017-11-05T13:23:59.637Z,4.30
2017-11-05T13:26:27.173Z,4.67
2017-11-05T13:28:55.404Z,5.10
2017-11-05T13:31:22.955Z,5.50
2017-11-05T13:33:50.473Z,6.37
2017-11-05T13:36:17.947Z,5.77
2017-11-05T13:38:46.244Z,5.53
2017-11-05T13:41:13.758Z,6.17
2017-11-05T13:43:41.260Z,5.20
2017-11-05T13:46:09.519Z,5.50
2017-11-05T13:48:37.122Z,6.93
2017-11-05T13:51:05.589Z,5.90
2017-11-05T13:53:33.059Z,6.50
2017-11-05T13:56:00.553Z,7.03
2017-11-05T13:58:28.014Z,5.00
2017-11-05T14:00:55.523Z,5.10
2017-11-05T14:03:23.770Z,5.87
2017-11-05T14:05:51.266Z,5.73
2017-11-05T14:08:19.533Z,5.80
2017-11-05T14:10:47.027Z,5.60
2017-11-05T14:13:15.305Z,4.97
2017-11-05T14:15:43.556Z,6.90
2017-11-05T14:18:11.062Z,6.57
2017-11-05T14:20:38.588Z,5.57
2017-11-05T14:23:06.085Z,6.17
2017-11-05T14:25:33.574Z,6.20
2017-11-05T14:28:01.077Z,5.90
2017-11-05T14:30:28.601Z,6.20
2017-11-05T14:32:56.121Z,6.00
2017-11-05T14:35:23.652Z,6.10
2017-11-05T14:37:51.867Z,5.90
2017-11-05T14:40:20.107Z,5.97
2017-11-05T14:42:47.594Z,5.57
2017-11-05T14:45:15.879Z,6.23
2017-11-05T14:47:44.099Z,5.50
2017-11-05T14:50:11.624Z,5.50
2017-11-05T14:52:39.123Z,5.33
2017-11-05T14:55:06.611Z,7.10
2017-11-05T14:57:34.126Z,7.27
2017-11-05T15:00:02.353Z,6.17
2017-11-05T15:02:29.840Z,6.87
2017-11-05T15:04:57.355Z,4.70
2017-11-05T15:07:25.642Z,5.43
2017-11-05T15:09:53.117Z,5.10
2017-11-05T15:12:20.685Z,5.33
2017-11-05T15:14:48.161Z,4.53
2017-11-05T15:17:15.717Z,5.40
2017-11-05T15:19:43.941Z,4.43
2017-11-05T15:22:12.286Z,4.23
2017-11-05T15:24:39.772Z,3.37
2017-11-05T15:27:07.321Z,3.47
2017-11-05T15:29:34.774Z,2.50
2017-11-05T15:32:02.286Z,2.73
2017-11-05T15:34:29.767Z,2.17
2017-11-05T15:36:57.233Z,3.30
2017-11-05T15:39:25.445Z,2.90
2017-11-05T15:41:53.737Z,2.40
2017-11-05T15:44:21.142Z,2.33
2017-11-05T15:46:49.435Z,2.30
2017-11-05T15:49:17.668Z,2.10
2017-11-05T15:51:45.127Z,2.60
2017-11-05T15:54:12.660Z,2.60
2017-11-05T15:56:40.110Z,2.40
2017-11-05T15:59:07.640Z,2.87
2017-11-05T16:01:35.056Z,2.93
2017-11-05T16:04:02.542Z,3.30
2017-11-05T16:06:30.005Z,3.33
2017-11-05T16:08:57.473Z,3.30
2017-11-05T16:11:24.938Z,4.17
2017-11-05T16:13:52.439Z,3.97
2017-11-05T16:16:19.892Z,3.90
2017-11-05T16:18:48.152Z,3.30
2017-11-05T16:21:15.603Z,5.77
2017-11-05T16:23:43.065Z,4.73
2017-11-05T16:26:10.623Z,4.07
2017-11-05T16:28:38.127Z,4.67
2017-11-05T16:31:06.373Z,4.17
2017-11-05T16:33:33.866Z,3.93
2017-11-05T16:36:02.152Z,4.77
2017-11-05T16:38:30.413Z,4.37
2017-11-05T16:40:57.868Z,4.70
2017-11-05T16:43:25.371Z,4.53
2017-11-05T16:45:54.478Z,4.03
2017-11-05T16:48:21.964Z,3.63
2017-11-05T16:50:49.446Z,4.17
2017-11-05T16:53:16.943Z,4.27
2017-11-05T16:55:45.212Z,3.23
2017-11-05T16:58:13.472Z,4.43
2017-11-05T17:00:40.971Z,4.20
2017-11-05T17:03:09.227Z,3.50
2017-11-05T17:05:36.767Z,27.13
2017-11-05T17:08:04.230Z,3.60
2017-11-05T17:10:31.778Z,3.73
2017-11-05T17:12:59.301Z,4.03
2017-11-05T17:15:27.538Z,4.10
2017-11-05T17:17:55.066Z,4.90
2017-11-05T17:20:23.319Z,3.63
2017-11-05T17:22:51.701Z,4.40
2017-11-05T17:25:19.102Z,3.23
2017-11-05T17:27:46.622Z,3.37
2017-11-05T17:30:14.044Z,3.57
2017-11-05T17:32:41.490Z,3.80
2017-11-05T17:35:09.053Z,4.70
2017-11-05T17:37:36.509Z,3.93
2017-11-05T17:40:03.984Z,3.80
2017-11-05T17:42:31.494Z,2.80
2017-11-05T17:44:58.883Z,3.63
2017-11-05T17:47:26.437Z,3.67
2017-11-05T17:49:53.874Z,3.43
2017-11-05T17:52:21.481Z,3.30
2017-11-05T17:54:48.938Z,3.40
2017-11-05T17:57:16.464Z,3.83
2017-11-05T17:59:44.147Z,3.97
2017-11-05T18:02:11.610Z,4.00
2017-11-05T18:04:39.863Z,4.63
2017-11-05T18:07:07.409Z,4.07
2017-11-05T18:09:34.979Z,3.93
2017-11-05T18:12:02.437Z,3.90
2017-11-05T18:14:29.945Z,3.77
2017-11-05T18:16:58.279Z,3.30
2017-11-05T18:19:25.709Z,3.70
2017-11-05T18:21:53.291Z,3.30
2017-11-05T18:24:21.694Z,3.93
2017-11-05T18:26:49.220Z,3.80
2017-11-05T18:29:16.669Z,4.00
2017-11-05T18:31:44.977Z,3.47
2017-11-05T18:34:12.507Z,2.97
2017-11-05T18:36:40.728Z,4.03
2017-11-05T18:39:08.188Z,3.57
2017-11-05T18:41:35.663Z,4.90
2017-11-05T18:44:03.132Z,4.27
2017-11-05T18:46:30.629Z,4.33
2017-11-05T18:48:58.905Z,4.37
2017-11-05T18:51:27.151Z,4.50
2017-11-05T18:53:54.646Z,4.40
2017-11-05T18:56:22.141Z,5.20
2017-11-05T18:58:49.657Z,5.20
2017-11-05T19:01:17.174Z,6.40
2017-11-05T19:03:44.892Z,5.60
2017-11-05T19:06:12.432Z,5.80
2017-11-05T19:08:39.927Z,5.97
2017-11-05T19:11:07.420Z,5.37
2017-11-05T19:13:35.899Z,5.10
2017-11-05T19:16:03.439Z,5.00
2017-11-05T19:18:30.882Z,5.80
2017-11-05T19:20:58.381Z,5.10
2017-11-05T19:23:25.892Z,5.90
2017-11-05T19:25:53.390Z,6.23
2017-11-05T19:28:20.977Z,5.70
2017-11-05T19:30:49.243Z,5.23
2017-11-05T19:33:16.709Z,6.40
2017-11-05T19:35:44.222Z,5.53
2017-11-05T19:38:11.746Z,5.47
2017-11-05T19:40:39.988Z,5.97
2017-11-05T19:43:07.505Z,6.00
2017-11-05T19:45:35.723Z,5.67
2017-11-05T19:48:03.828Z,6.60
2017-11-05T19:50:31.277Z,5.80
2017-11-05T19:52:58.751Z,5.57
2017-11-05T19:55:26.229Z,6.40
2017-11-05T19:57:54.567Z,5.77
2017-11-05T20:00:22.036Z,6.67
2017-11-05T20:02:49.568Z,6.10
2017-11-05T20:05:17.754Z,6.70
2017-11-05T20:07:45.257Z,7.07
2017-11-05T20:10:13.743Z,7.10
2017-11-05T20:12:41.155Z,5.97
2017-11-05T20:15:08.681Z,6.27
2017-11-05T20:17:36.140Z,7.27
2017-11-05T20:20:03.585Z,7.00
2017-11-05T20:22:31.137Z,6.80
2017-11-05T20:24:58.603Z,6.03
2017-11-05T20:27:26.073Z,6.30
2017-11-05T20:29:53.539Z,6.30
2017-11-05T20:32:21.047Z,7.40
2017-11-05T20:34:48.725Z,7.00
2017-11-05T20:37:16.148Z,6.97
2017-11-05T20:39:43.654Z,7.30
2017-11-05T20:42:11.870Z,8.03
2017-11-05T20:44:39.407Z,7.90
2017-11-05T20:47:06.920Z,7.53
2017-11-05T20:49:34.478Z,9.40
2017-11-05T20:52:02.033Z,9.73
2017-11-05T20:54:29.476Z,8.53
2017-11-05T20:56:57.008Z,7.73
2017-11-05T20:59:24.489Z,7.50
2017-11-05T21:01:52.036Z,7.20
2017-11-05T21:04:19.507Z,8.07
2017-11-05T21:06:46.972Z,8.40
2017-11-05T21:09:14.461Z,7.40
2017-11-05T21:11:41.973Z,7.40
2017-11-05T21:14:10.233Z,9.00
2017-11-05T21:16:38.477Z,7.90
2017-11-05T21:19:06.024Z,8.50
2017-11-05T21:21:33.560Z,7.70
2017-11-05T21:24:00.998Z,7.97
2017-11-05T21:26:29.287Z,6.77
2017-11-05T21:28:57.559Z,8.40
2017-11-05T21:31:25.034Z,8.57
2017-11-05T21:33:53.374Z,8.10
2017-11-05T21:36:20.756Z,8.40
2017-11-05T21:38:48.262Z,7.67
2017-11-05T21:41:15.707Z,7.40
2017-11-05T21:43:43.981Z,8.30
2017-11-05T21:46:12.263Z,8.43
2017-11-05T21:48:40.543Z,8.77
2017-11-05T21:51:08.760Z,8.43
2017-11-05T21:53:36.234Z,8.40
2017-11-05T21:56:03.727Z,8.80
2017-11-05T21:58:31.225Z,8.60
2017-11-05T22:00:58.739Z,9.90
2017-11-05T22:03:26.232Z,7.53
2017-11-05T22:05:53.677Z,8.63
2017-11-05T22:08:21.199Z,10.27
2017-11-05T22:10:48.706Z,7.97
2017-11-05T22:13:16.206Z,10.10
2017-11-05T22:15:44.426Z,8.77
2017-11-05T22:18:11.935Z,9.57
2017-11-05T22:20:39.442Z,10.07
2017-11-05T22:23:06.886Z,9.20
2017-11-05T22:25:34.370Z,9.03
2017-11-05T22:28:01.886Z,7.80
2017-11-05T22:30:29.311Z,8.00
2017-11-05T22:32:56.793Z,8.57
2017-11-05T22:35:24.325Z,9.40
2017-11-05T22:37:51.858Z,8.87
2017-11-05T22:40:19.302Z,7.80
2017-11-05T22:42:47.585Z,10.00
2017-11-05T22:45:15.837Z,9.10
2017-11-05T22:47:43.311Z,8.47
2017-11-05T22:50:10.793Z,8.80
2017-11-05T22:52:39.043Z,8.57
2017-11-05T22:55:07.323Z,9.90
2017-11-05T22:57:34.835Z,9.03
2017-11-05T23:00:02.273Z,9.30
2017-11-05T23:02:30.543Z,8.23
2017-11-05T23:04:58.047Z,9.60
2017-11-05T23:07:25.533Z,8.63
2017-11-05T23:09:52.998Z,9.03
2017-11-05T23:12:20.484Z,8.70
2017-11-05T23:14:47.963Z,9.20
2017-11-05T23:17:15.454Z,10.20
2017-11-05T23:19:42.898Z,9.70
2017-11-05T23:22:11.169Z,9.30
2017-11-05T23:24:39.425Z,9.27
2017-11-05T23:27:07.542Z,10.77
2017-11-05T23:29:34.979Z,9.70
2017-11-05T23:32:03.207Z,10.27
2017-11-05T23:34:31.435Z,10.10
2017-11-05T23:36:58.903Z,10.20
2017-11-05T23:39:26.351Z,9.83
2017-11-05T23:41:53.772Z,9.73
2017-11-05T23:44:21.261Z,9.67
2017-11-05T23:46:48.745Z,10.87
2017-11-05T23:49:16.198Z,10.27
2017-11-05T23:51:43.722Z,9.10
2017-11-05T23:54:11.176Z,10.67
2017-11-05T23:56:38.652Z,10.17
2017-11-05T23:59:06.162Z,12.67
